createdAt,value
2022-11-28T00:01:29.747Z,7.05
2022-11-28T00:03:56.769Z,7.03
2022-11-28T00:06:23.710Z,8.23
2022-11-28T00:08:50.400Z,6.72
2022-11-28T00:11:49.068Z,7.20
2022-11-28T00:14:21.594Z,7.75
2022-11-28T00:16:48.543Z,7.50
2022-11-28T00:19:15.112Z,7.70
2022-11-28T00:21:42.234Z,7.35
2022-11-28T00:24:10.302Z,7.55
2022-11-28T00:26:41.632Z,7.68
2022-11-28T00:29:09.682Z,7.80
2022-11-28T00:31:43.190Z,9.00
2022-11-28T00:34:14.570Z,8.68
2022-11-28T00:36:44.457Z,8.40
2022-11-28T00:39:10.840Z,7.35
2022-11-28T00:41:37.263Z,8.05
2022-11-28T00:44:03.963Z,7.72
2022-11-28T00:46:30.436Z,8.20
2022-11-28T00:48:58.430Z,7.57
2022-11-28T00:51:30.107Z,7.90
2022-11-28T00:53:58.719Z,8.25
2022-11-28T00:56:31.194Z,8.90
2022-11-28T00:58:58.378Z,8.27
2022-11-28T01:01:24.721Z,7.72
2022-11-28T01:03:52.433Z,8.15
2022-11-28T01:06:27.959Z,7.97
2022-11-28T01:08:55.479Z,8.32
2022-11-28T01:11:22.303Z,8.10
2022-11-28T01:13:49.122Z,8.98
2022-11-28T01:16:15.577Z,8.18
2022-11-28T01:18:42.236Z,8.98
2022-11-28T01:21:08.961Z,7.90
2022-11-28T01:23:36.570Z,8.40
2022-11-28T01:26:04.738Z,8.93
2022-11-28T01:28:31.180Z,9.02
2022-11-28T01:31:03.276Z,8.23
2022-11-28T01:33:29.714Z,9.13
2022-11-28T01:35:58.161Z,9.40
2022-11-28T01:38:25.110Z,8.73
2022-11-28T01:40:52.502Z,9.15
2022-11-28T01:43:19.341Z,8.57
2022-11-28T01:45:45.729Z,9.00
2022-11-28T01:48:15.574Z,8.80
2022-11-28T01:50:43.449Z,9.05
2022-11-28T01:53:10.893Z,7.97
2022-11-28T01:55:48.607Z,9.48
2022-11-28T01:58:15.651Z,8.85
2022-11-28T02:00:42.028Z,8.93
2022-11-28T02:03:14.044Z,9.52
2022-11-28T02:05:40.912Z,8.98
2022-11-28T02:08:09.228Z,8.15
2022-11-28T02:11:03.292Z,9.65
2022-11-28T02:13:29.675Z,8.60
2022-11-28T02:16:13.269Z,8.77
2022-11-28T02:19:01.846Z,8.82
2022-11-28T02:21:46.198Z,9.00
2022-11-28T02:24:46.522Z,7.88
2022-11-28T02:27:46.967Z,8.60
2022-11-28T02:30:45.884Z,8.85
2022-11-28T02:33:20.760Z,9.50
2022-11-28T02:35:58.993Z,8.45
2022-11-28T02:38:46.329Z,8.68
2022-11-28T02:41:22.557Z,8.18
2022-11-28T02:44:10.011Z,8.57
2022-11-28T02:46:45.351Z,8.02
2022-11-28T02:49:19.594Z,8.98
2022-11-28T02:51:55.796Z,8.75
2022-11-28T02:54:27.247Z,8.55
2022-11-28T02:56:54.812Z,9.45
2022-11-28T02:59:44.199Z,8.68
2022-11-28T03:02:30.144Z,9.05
2022-11-28T03:05:39.851Z,8.90
2022-11-28T03:08:25.200Z,8.95
2022-11-28T03:10:54.563Z,9.70
2022-11-28T03:13:35.725Z,8.73
2022-11-28T03:16:22.439Z,9.32
2022-11-28T03:19:09.448Z,9.23
2022-11-28T03:21:40.814Z,9.50
2022-11-28T03:24:16.852Z,10.10
2022-11-28T03:27:32.699Z,9.25
2022-11-28T03:30:06.614Z,9.45
2022-11-28T03:32:38.292Z,10.20
2022-11-28T03:35:08.827Z,9.95
2022-11-28T03:37:42.464Z,10.32
2022-11-28T03:40:15.500Z,9.88
2022-11-28T03:45:20.637Z,10.35
2022-11-28T03:47:53.828Z,9.93
2022-11-28T03:50:35.624Z,9.50
2022-11-28T03:53:11.674Z,9.05
2022-11-28T03:55:44.381Z,10.18
2022-11-28T03:58:19.548Z,9.95
2022-11-28T04:00:58.067Z,9.88
2022-11-28T04:03:46.327Z,10.18
2022-11-28T04:06:21.875Z,9.77
2022-11-28T04:09:14.247Z,9.60
2022-11-28T04:12:04.502Z,10.63
2022-11-28T04:14:42.324Z,9.40
2022-11-28T04:17:12.540Z,9.80
2022-11-28T04:19:47.267Z,8.98
2022-11-28T04:22:24.153Z,10.02
2022-11-28T04:25:05.381Z,10.20
2022-11-28T04:27:37.521Z,10.73
2022-11-28T04:30:05.471Z,7.40
2022-11-28T04:32:35.919Z,8.88
2022-11-28T04:35:10.730Z,8.85
2022-11-28T04:37:39.079Z,9.50
2022-11-28T04:40:11.035Z,8.65
2022-11-28T04:42:42.251Z,10.45
2022-11-28T04:45:11.788Z,9.25
2022-11-28T04:47:38.348Z,10.38
2022-11-28T04:50:05.750Z,8.77
2022-11-28T04:52:52.030Z,9.75
2022-11-28T04:55:29.950Z,9.27
2022-11-28T04:58:16.712Z,9.02
2022-11-28T05:00:44.277Z,9.45
2022-11-28T05:03:11.430Z,9.23
2022-11-28T05:05:43.893Z,10.00
2022-11-28T05:08:10.492Z,6.50
2022-11-28T05:10:37.675Z,9.25
2022-11-28T05:13:04.402Z,10.07
2022-11-28T05:15:30.782Z,9.25
2022-11-28T05:17:57.591Z,9.85
2022-11-28T05:20:24.175Z,10.93
2022-11-28T05:22:50.599Z,8.43
2022-11-28T05:25:17.048Z,10.52
2022-11-28T05:27:43.508Z,9.05
2022-11-28T05:30:10.869Z,8.85
2022-11-28T05:32:37.249Z,9.18
2022-11-28T05:35:04.533Z,8.98
2022-11-28T05:37:31.073Z,9.75
2022-11-28T05:39:57.477Z,10.13
2022-11-28T05:42:25.668Z,9.52
2022-11-28T05:44:52.627Z,9.32
2022-11-28T05:47:19.056Z,9.18
2022-11-28T05:49:46.521Z,9.73
2022-11-28T05:52:13.216Z,9.45
2022-11-28T05:54:39.590Z,10.43
2022-11-28T05:57:07.077Z,9.70
2022-11-28T05:59:34.047Z,9.55
2022-11-28T06:02:00.952Z,9.80
2022-11-28T06:04:27.437Z,10.27
2022-11-28T06:06:54.809Z,8.55
2022-11-28T06:09:25.658Z,10.23
2022-11-28T06:14:20.563Z,9.82
2022-11-28T06:16:47.020Z,10.23
2022-11-28T06:19:13.728Z,10.35
2022-11-28T06:21:40.321Z,10.63
2022-11-28T06:24:07.094Z,10.18
2022-11-28T06:26:33.509Z,10.77
2022-11-28T06:28:59.859Z,12.38
2022-11-28T06:31:28.668Z,10.40
2022-11-28T06:33:55.403Z,11.02
2022-11-28T06:36:21.989Z,11.38
2022-11-28T06:38:48.400Z,11.55
2022-11-28T06:41:18.289Z,10.02
2022-11-28T06:43:44.668Z,11.40
2022-11-28T06:46:16.014Z,10.55
2022-11-28T06:48:43.857Z,11.50
2022-11-28T06:51:11.097Z,9.68
2022-11-28T06:53:37.527Z,9.52
2022-11-28T06:56:09.052Z,11.32
2022-11-28T06:58:35.872Z,10.60
2022-11-28T07:01:16.900Z,10.02
2022-11-28T07:03:45.030Z,10.55
2022-11-28T07:06:12.943Z,10.65
2022-11-28T07:08:39.927Z,11.90
2022-11-28T07:11:20.564Z,11.30
2022-11-28T07:13:47.664Z,11.20
2022-11-28T07:16:34.406Z,13.02
2022-11-28T07:19:01.102Z,11.60
2022-11-28T07:21:28.393Z,11.55
2022-11-28T07:23:54.761Z,11.75
2022-11-28T07:26:22.722Z,11.02
2022-11-28T07:28:50.932Z,10.35
2022-11-28T07:31:20.562Z,10.70
2022-11-28T07:33:49.025Z,10.25
2022-11-28T07:36:25.876Z,12.27
2022-11-28T07:38:55.806Z,10.82
2022-11-28T07:41:26.436Z,11.57
2022-11-28T07:43:56.468Z,10.25
2022-11-28T07:46:23.696Z,10.52
2022-11-28T07:48:50.079Z,10.10
2022-11-28T07:51:19.684Z,10.30
2022-11-28T07:53:47.299Z,11.80
2022-11-28T07:56:16.417Z,11.00
2022-11-28T07:58:45.198Z,9.02
2022-11-28T08:01:25.430Z,12.23
2022-11-28T08:03:52.823Z,10.85
2022-11-28T08:06:23.716Z,10.25
2022-11-28T08:08:51.409Z,10.82
2022-11-28T08:11:19.617Z,11.88
2022-11-28T08:13:46.403Z,12.63
2022-11-28T08:16:16.311Z,11.65
2022-11-28T08:18:43.368Z,10.85
2022-11-28T08:21:12.558Z,12.52
2022-11-28T08:23:40.233Z,12.90
2022-11-28T08:26:11.166Z,12.80
2022-11-28T08:28:37.629Z,11.77
2022-11-28T08:31:14.187Z,11.88
2022-11-28T08:33:41.287Z,11.00
2022-11-28T08:36:10.088Z,11.43
2022-11-28T08:38:37.229Z,12.23
2022-11-28T08:41:09.627Z,11.10
2022-11-28T08:43:37.357Z,11.57
2022-11-28T08:46:05.153Z,11.05
2022-11-28T08:48:32.843Z,11.00
2022-11-28T08:50:59.348Z,9.98
2022-11-28T08:53:26.064Z,12.20
2022-11-28T08:55:52.637Z,13.00
2022-11-28T08:58:19.062Z,11.13
2022-11-28T09:00:46.947Z,11.65
2022-11-28T09:03:15.487Z,11.13
2022-11-28T09:05:43.191Z,14.18
2022-11-28T09:08:11.783Z,12.35
2022-11-28T09:10:40.411Z,11.60
2022-11-28T09:13:07.457Z,11.65
2022-11-28T09:15:33.917Z,12.27
2022-11-28T09:18:00.804Z,12.88
2022-11-28T09:20:27.454Z,11.98
2022-11-28T09:22:54.041Z,10.93
2022-11-28T09:25:20.419Z,12.48
2022-11-28T09:27:46.819Z,11.85
2022-11-28T09:30:13.591Z,11.25
2022-11-28T09:32:40.119Z,12.38
2022-11-28T09:35:06.774Z,11.68
2022-11-28T09:37:33.213Z,12.23
2022-11-28T09:40:13.339Z,11.98
2022-11-28T09:42:43.993Z,13.95
2022-11-28T09:45:19.421Z,12.50
2022-11-28T09:47:53.181Z,13.23
2022-11-28T09:50:24.442Z,12.02
2022-11-28T09:53:15.853Z,12.57
2022-11-28T09:55:50.150Z,11.70
2022-11-28T09:58:35.412Z,12.30
2022-11-28T10:01:10.984Z,11.98
2022-11-28T10:03:55.284Z,11.40
2022-11-28T10:06:40.598Z,11.38
2022-11-28T10:09:35.201Z,11.57
2022-11-28T10:12:07.735Z,11.85
2022-11-28T10:14:56.961Z,11.07
2022-11-28T10:17:30.470Z,11.95
2022-11-28T10:20:06.531Z,11.00
2022-11-28T10:22:43.277Z,10.35
2022-11-28T10:25:41.599Z,10.30
2022-11-28T10:28:16.451Z,10.20
2022-11-28T10:30:49.130Z,10.85
2022-11-28T10:33:25.232Z,10.75
2022-11-28T10:35:56.625Z,10.50
2022-11-28T10:38:28.213Z,10.35
2022-11-28T10:41:01.645Z,9.63
2022-11-28T10:43:51.520Z,12.45
2022-11-28T10:46:41.356Z,11.23
2022-11-28T10:49:22.836Z,10.63
2022-11-28T10:52:01.052Z,10.15
2022-11-28T10:54:46.872Z,10.07
2022-11-28T10:57:21.232Z,9.68
2022-11-28T10:59:47.579Z,11.68
2022-11-28T11:02:44.900Z,10.38
2022-11-28T11:05:20.411Z,10.13
2022-11-28T11:07:52.842Z,10.75
2022-11-28T11:11:03.715Z,9.93
2022-11-28T11:13:33.315Z,10.52
2022-11-28T11:16:11.020Z,10.10
2022-11-28T11:18:54.384Z,9.85
2022-11-28T11:23:49.233Z,9.27
2022-11-28T11:26:32.354Z,10.13
2022-11-28T11:28:59.280Z,9.18
2022-11-28T11:31:29.659Z,9.77
2022-11-28T11:34:17.955Z,9.48
2022-11-28T11:36:45.184Z,9.95
2022-11-28T11:39:11.461Z,11.50
2022-11-28T11:41:43.447Z,11.18
2022-11-28T11:44:15.923Z,12.20
2022-11-28T11:46:57.355Z,10.45
2022-11-28T11:49:41.410Z,11.23
2022-11-28T11:52:27.101Z,11.30
2022-11-28T11:55:03.975Z,12.35
2022-11-28T11:58:06.084Z,13.20
2022-11-28T12:00:41.224Z,11.10
2022-11-28T12:03:28.481Z,12.52
2022-11-28T12:06:13.767Z,11.02
2022-11-28T12:08:52.584Z,11.98
2022-11-28T12:11:26.502Z,13.85
2022-11-28T12:13:53.796Z,13.23
2022-11-28T12:16:45.419Z,12.10
2022-11-28T12:19:33.555Z,12.02
2022-11-28T12:22:06.110Z,13.68
2022-11-28T12:24:49.458Z,13.95
2022-11-28T12:27:53.852Z,13.35
2022-11-28T12:30:44.740Z,12.20
2022-11-28T12:33:17.356Z,14.15
2022-11-28T12:35:52.591Z,13.35
2022-11-28T12:38:47.194Z,12.50
2022-11-28T12:41:53.680Z,13.27
2022-11-28T12:44:26.197Z,13.25
2022-11-28T12:47:30.347Z,9.85
2022-11-28T12:50:17.734Z,12.73
2022-11-28T12:53:00.142Z,13.45
2022-11-28T12:56:09.330Z,10.70
2022-11-28T12:58:51.383Z,15.00
2022-11-28T13:01:39.286Z,14.23
2022-11-28T13:04:20.233Z,12.55
2022-11-28T13:07:17.341Z,13.18
2022-11-28T13:10:01.405Z,15.10
2022-11-28T13:12:55.623Z,13.65
2022-11-28T13:15:45.596Z,15.50
2022-11-28T13:18:12.043Z,15.45
2022-11-28T13:20:58.301Z,15.43
2022-11-28T13:23:44.838Z,14.35
2022-11-28T13:26:25.585Z,15.52
2022-11-28T13:29:21.888Z,14.32
2022-11-28T13:32:07.681Z,16.30
2022-11-28T13:34:35.097Z,14.68
2022-11-28T13:40:19.079Z,15.82
2022-11-28T13:43:07.567Z,14.88
2022-11-28T13:45:39.342Z,15.10
2022-11-28T13:51:33.919Z,15.18
2022-11-28T13:54:19.808Z,16.42
2022-11-28T13:57:03.825Z,13.55
2022-11-28T13:59:31.672Z,15.13
2022-11-28T14:02:05.492Z,13.85
2022-11-28T14:04:33.253Z,14.25
2022-11-28T14:07:03.556Z,15.02
2022-11-28T14:10:07.255Z,13.13
2022-11-28T14:12:51.253Z,14.55
2022-11-28T14:15:33.744Z,14.02
2022-11-28T14:18:39.605Z,12.82
2022-11-28T14:21:38.917Z,13.45
2022-11-28T14:24:27.084Z,16.10
2022-11-28T14:27:00.971Z,14.70
2022-11-28T14:29:35.582Z,14.40
2022-11-28T14:34:53.524Z,28.42
2022-11-28T14:37:20.222Z,23.95
2022-11-28T14:39:49.917Z,17.50
2022-11-28T14:42:43.981Z,14.63
2022-11-28T14:45:26.409Z,14.27
2022-11-28T14:48:15.584Z,14.57
2022-11-28T14:50:42.168Z,15.68
2022-11-28T14:53:45.511Z,17.30
2022-11-28T14:56:14.756Z,16.55
2022-11-28T14:58:48.205Z,13.10
2022-11-28T15:01:27.545Z,12.52
2022-11-28T15:03:56.742Z,14.27
2022-11-28T15:06:32.911Z,14.48
2022-11-28T15:09:04.705Z,13.23
2022-11-28T15:12:11.286Z,15.10
2022-11-28T15:14:39.817Z,15.07
2022-11-28T15:17:12.245Z,14.75
2022-11-28T15:19:46.688Z,15.07
2022-11-28T15:22:42.602Z,14.43
2022-11-28T15:25:19.945Z,15.13
2022-11-28T15:27:46.603Z,14.73
2022-11-28T15:30:23.713Z,14.48
2022-11-28T15:32:57.468Z,14.32
2022-11-28T15:37:53.985Z,13.30
2022-11-28T15:40:32.810Z,13.38
2022-11-28T15:43:01.088Z,12.98
2022-11-28T15:45:35.190Z,13.73
2022-11-28T15:48:02.110Z,14.45
2022-11-28T15:50:31.435Z,14.35
2022-11-28T15:52:59.926Z,13.10
2022-11-28T15:55:31.111Z,14.68
2022-11-28T15:58:22.029Z,13.93
2022-11-28T16:00:53.192Z,14.93
2022-11-28T16:03:23.819Z,14.73
2022-11-28T16:05:55.175Z,14.23
2022-11-28T16:08:48.068Z,14.43
2022-11-28T16:11:19.103Z,17.58
2022-11-28T16:13:46.620Z,16.88
2022-11-28T16:16:18.345Z,16.67
2022-11-28T16:18:53.339Z,17.30
2022-11-28T16:21:19.883Z,15.48
2022-11-28T16:23:46.250Z,15.77
2022-11-28T16:26:34.857Z,16.23
2022-11-28T16:29:07.363Z,16.70
2022-11-28T16:31:34.504Z,16.95
2022-11-28T16:34:02.671Z,16.13
2022-11-28T16:36:37.043Z,17.23
2022-11-28T16:39:09.594Z,17.77
2022-11-28T16:41:37.355Z,16.88
2022-11-28T16:44:07.596Z,17.73
2022-11-28T16:46:38.301Z,15.43
2022-11-28T16:49:08.037Z,17.27
2022-11-28T16:51:35.536Z,18.17
2022-11-28T16:54:31.793Z,19.50
2022-11-28T16:57:10.301Z,17.73
2022-11-28T16:59:36.769Z,18.40
2022-11-28T17:02:03.740Z,17.60
2022-11-28T17:04:30.878Z,18.10
2022-11-28T17:07:01.759Z,19.65
2022-11-28T17:09:28.225Z,16.90
2022-11-28T17:12:08.303Z,16.05
2022-11-28T17:14:35.216Z,15.60
2022-11-28T17:17:01.598Z,14.98
2022-11-28T17:19:28.086Z,15.52
2022-11-28T17:21:58.370Z,17.67
2022-11-28T17:24:27.260Z,15.27
2022-11-28T17:26:54.301Z,15.98
2022-11-28T17:29:21.455Z,15.82
2022-11-28T17:31:48.639Z,14.27
2022-11-28T17:34:26.625Z,15.38
2022-11-28T17:36:53.264Z,14.75
2022-11-28T17:39:20.554Z,16.23
2022-11-28T17:41:49.387Z,16.80
2022-11-28T17:44:22.341Z,16.73
2022-11-28T17:46:50.446Z,16.80
2022-11-28T17:49:17.598Z,16.20
2022-11-28T17:51:44.395Z,15.13
2022-11-28T17:54:16.121Z,16.25
2022-11-28T17:56:43.751Z,16.60
2022-11-28T17:59:12.525Z,16.33
2022-11-28T18:01:39.147Z,17.35
2022-11-28T18:04:05.622Z,16.15
2022-11-28T18:06:32.285Z,16.17
2022-11-28T18:09:00.005Z,17.33
2022-11-28T18:11:28.115Z,16.70
2022-11-28T18:13:55.383Z,18.05
2022-11-28T18:16:25.522Z,18.05
2022-11-28T18:18:52.802Z,18.45
2022-11-28T18:21:19.524Z,16.73
2022-11-28T18:23:49.596Z,17.73
2022-11-28T18:26:20.637Z,17.30
2022-11-28T18:28:47.064Z,17.02
2022-11-28T18:31:17.309Z,17.08
2022-11-28T18:33:44.515Z,18.77
2022-11-28T18:36:20.120Z,17.38
2022-11-28T18:38:47.641Z,17.67
2022-11-28T18:41:16.362Z,18.00
2022-11-28T18:43:44.047Z,18.15
2022-11-28T18:46:13.123Z,17.92
2022-11-28T18:48:41.953Z,17.27
2022-11-28T18:51:19.043Z,17.88
2022-11-28T18:53:46.055Z,19.08
2022-11-28T18:56:13.989Z,16.80
2022-11-28T18:58:42.943Z,18.00
2022-11-28T19:01:12.550Z,17.90
2022-11-28T19:03:39.498Z,18.40
2022-11-28T19:06:12.102Z,17.23
2022-11-28T19:08:39.502Z,19.33
2022-11-28T19:11:14.314Z,22.48
2022-11-28T19:13:42.638Z,20.60
2022-11-28T19:16:18.165Z,19.38
2022-11-28T19:18:45.457Z,18.67
2022-11-28T19:21:15.231Z,18.08
2022-11-28T19:23:42.803Z,17.60
2022-11-28T19:26:11.535Z,17.08
2022-11-28T19:28:39.584Z,18.30
2022-11-28T19:31:07.403Z,15.30
2022-11-28T19:33:34.638Z,15.65
2022-11-28T19:36:07.153Z,18.15
2022-11-28T19:38:34.472Z,18.55
2022-11-28T19:41:16.493Z,16.20
2022-11-28T19:43:45.494Z,18.45
2022-11-28T19:46:13.526Z,16.85
2022-11-28T19:48:41.876Z,19.10
2022-11-28T19:51:10.139Z,17.90
2022-11-28T19:53:38.674Z,17.65
2022-11-28T19:56:07.932Z,17.38
2022-11-28T19:58:35.727Z,18.45
2022-11-28T20:01:15.911Z,15.23
2022-11-28T20:03:43.195Z,17.38
2022-11-28T20:06:13.383Z,16.55
2022-11-28T20:08:41.260Z,17.90
2022-11-28T20:11:21.559Z,18.35
2022-11-28T20:13:49.833Z,18.95
2022-11-28T20:16:17.745Z,18.38
2022-11-28T20:18:44.927Z,16.42
2022-11-28T20:21:18.182Z,16.92
2022-11-28T20:23:48.677Z,17.98
2022-11-28T20:26:17.094Z,17.08
2022-11-28T20:28:45.190Z,15.05
2022-11-28T20:31:21.517Z,16.15
2022-11-28T20:33:51.246Z,15.88
2022-11-28T20:36:21.524Z,14.70
2022-11-28T20:38:49.473Z,15.70
2022-11-28T20:41:17.897Z,16.70
2022-11-28T20:43:44.556Z,18.05
2022-11-28T20:46:22.741Z,17.30
2022-11-28T20:48:50.514Z,16.83
2022-11-28T20:51:24.655Z,18.70
2022-11-28T20:53:51.882Z,18.63
2022-11-28T20:56:22.064Z,16.58
2022-11-28T20:58:49.280Z,16.33
2022-11-28T21:01:18.794Z,19.08
2022-11-28T21:03:46.171Z,18.13
2022-11-28T21:06:13.076Z,18.48
2022-11-28T21:08:40.487Z,17.90
2022-11-28T21:11:30.540Z,15.80
2022-11-28T21:14:00.604Z,18.02
2022-11-28T21:16:29.142Z,17.70
2022-11-28T21:18:56.937Z,17.08
2022-11-28T21:21:26.498Z,17.98
2022-11-28T21:23:57.266Z,16.95
2022-11-28T21:26:30.187Z,17.83
2022-11-28T21:29:12.899Z,17.55
2022-11-28T21:31:44.868Z,19.27
2022-11-28T21:34:14.169Z,19.38
2022-11-28T21:36:40.995Z,18.05
2022-11-28T21:39:07.376Z,16.20
2022-11-28T21:41:33.995Z,17.45
2022-11-28T21:44:00.994Z,17.27
2022-11-28T21:46:28.353Z,16.50
2022-11-28T21:48:55.154Z,14.90
2022-11-28T21:51:24.637Z,16.35
2022-11-28T21:53:51.413Z,15.93
2022-11-28T21:56:18.768Z,16.70
2022-11-28T21:58:46.144Z,16.40
2022-11-28T22:01:14.767Z,17.88
2022-11-28T22:03:43.753Z,17.70
2022-11-28T22:06:20.547Z,17.58
2022-11-28T22:08:51.557Z,18.25
2022-11-28T22:11:19.629Z,16.73
2022-11-28T22:13:48.850Z,17.05
2022-11-28T22:16:23.461Z,17.60
2022-11-28T22:18:52.363Z,18.48
2022-11-28T22:24:06.519Z,15.98
2022-11-28T22:26:33.888Z,16.77
2022-11-28T22:29:04.183Z,17.35
2022-11-28T22:31:32.778Z,15.38
2022-11-28T22:33:59.433Z,16.85
2022-11-28T22:36:26.331Z,16.73
2022-11-28T22:38:58.023Z,18.38
2022-11-28T22:41:29.211Z,16.85
2022-11-28T22:44:00.742Z,16.25
2022-11-28T22:46:28.992Z,16.92
2022-11-28T22:49:00.023Z,16.63
2022-11-28T22:51:27.316Z,16.27
2022-11-28T22:53:55.220Z,15.70
2022-11-28T22:56:24.160Z,16.15
2022-11-28T22:58:51.404Z,15.77
2022-11-28T23:01:30.053Z,15.70
2022-11-28T23:03:57.178Z,17.30
2022-11-28T23:06:26.803Z,15.15
2022-11-28T23:08:55.605Z,15.57
2022-11-28T23:11:26.241Z,16.42
2022-11-28T23:13:54.240Z,14.38
2022-11-28T23:16:30.072Z,14.38
2022-11-28T23:18:59.416Z,16.73
2022-11-28T23:21:28.772Z,17.08
2022-11-28T23:23:55.298Z,17.65
2022-11-28T23:26:24.531Z,16.05
2022-11-28T23:28:52.181Z,16.05
2022-11-28T23:31:27.691Z,16.27
2022-11-28T23:33:55.308Z,17.58
2022-11-28T23:36:32.327Z,15.35
2022-11-28T23:39:07.208Z,17.88
2022-11-28T23:41:33.596Z,16.45
2022-11-28T23:44:00.434Z,15.95
2022-11-28T23:46:37.184Z,16.52
2022-11-28T23:49:05.626Z,17.20
2022-11-28T23:51:32.193Z,17.15
2022-11-28T23:53:58.645Z,18.98
2022-11-28T23:56:30.600Z,18.90
2022-11-28T23:58:59.854Z,17.38
